sensor_id;sensor_type;location;lat;lon;timestamp;temperature;humidity
19654;DHT22;9975;48.046;7.804;2023-11-21T01:56:21;8.60;99.90
19654;DHT22;9975;48.046;7.804;2023-11-21T01:58:46;8.60;99.90
19654;DHT22;9975;48.046;7.804;2023-11-21T02:01:12;8.70;99.90
19654;DHT22;9975;48.046;7.804;2023-11-21T02:03:39;8.70;99.90
19654;DHT22;9975;48.046;7.804;2023-11-21T02:06:05;8.70;99.90
19654;DHT22;9975;48.046;7.804;2023-11-21T02:08:31;8.70;99.90
19654;DHT22;9975;48.046;7.804;2023-11-21T02:10:56;8.70;99.90
19654;DHT22;9975;48.046;7.804;2023-11-21T02:13:23;8.70;99.90
19654;DHT22;9975;48.046;7.804;2023-11-21T02:15:48;8.80;99.90
19654;DHT22;9975;48.046;7.804;2023-11-21T02:18:17;8.80;99.90
19654;DHT22;9975;48.046;7.804;2023-11-21T02:20:43;8.80;99.90
19654;DHT22;9975;48.046;7.804;2023-11-21T02:23:09;8.70;99.90
19654;DHT22;9975;48.046;7.804;2023-11-21T02:25:34;8.90;99.90
19654;DHT22;9975;48.046;7.804;2023-11-21T02:28:03;8.80;99.90
19654;DHT22;9975;48.046;7.804;2023-11-21T02:30:29;8.70;99.90
19654;DHT22;9975;48.046;7.804;2023-11-21T02:32:57;8.70;99.90
19654;DHT22;9975;48.046;7.804;2023-11-21T02:35:23;8.70;99.90
19654;DHT22;9975;48.046;7.804;2023-11-21T02:37:55;8.70;99.90
19654;DHT22;9975;48.046;7.804;2023-11-21T02:40:20;8.70;99.90
19654;DHT22;9975;48.046;7.804;2023-11-21T02:42:50;8.70;99.90
19654;DHT22;9975;48.046;7.804;2023-11-21T02:45:19;8.70;99.90
19654;DHT22;9975;48.046;7.804;2023-11-21T02:47:46;8.70;99.90
19654;DHT22;9975;48.046;7.804;2023-11-21T02:50:12;8.80;99.90
19654;DHT22;9975;48.046;7.804;2023-11-21T02:52:39;8.70;99.90
19654;DHT22;9975;48.046;7.804;2023-11-21T02:55:07;8.80;99.90
19654;DHT22;9975;48.046;7.804;2023-11-21T02:57:33;8.70;99.90
19654;DHT22;9975;48.046;7.804;2023-11-21T02:59:59;8.70;99.90
19654;DHT22;9975;48.046;7.804;2023-11-21T03:02:25;8.60;99.90
19654;DHT22;9975;48.046;7.804;2023-11-21T03:04:51;8.50;99.90
19654;DHT22;9975;48.046;7.804;2023-11-21T03:07:17;8.70;99.90
19654;DHT22;9975;48.046;7.804;2023-11-21T03:09:47;8.60;99.90
19654;DHT22;9975;48.046;7.804;2023-11-21T03:12:13;8.60;99.90
19654;DHT22;9975;48.046;7.804;2023-11-21T03:14:39;8.60;99.90
19654;DHT22;9975;48.046;7.804;2023-11-21T03:17:05;8.60;99.90
19654;DHT22;9975;48.046;7.804;2023-11-21T03:19:31;8.50;99.90
19654;DHT22;9975;48.046;7.804;2023-11-21T03:21:56;8.60;99.90
19654;DHT22;9975;48.046;7.804;2023-11-21T03:24:22;8.70;99.90
19654;DHT22;9975;48.046;7.804;2023-11-21T03:26:48;8.70;99.90
19654;DHT22;9975;48.046;7.804;2023-11-21T03:29:14;8.70;99.90
19654;DHT22;9975;48.046;7.804;2023-11-21T03:31:40;8.70;99.90
19654;DHT22;9975;48.046;7.804;2023-11-21T03:34:06;8.60;99.90
19654;DHT22;9975;48.046;7.804;2023-11-21T03:36:33;8.70;99.90
19654;DHT22;9975;48.046;7.804;2023-11-21T03:38:58;8.70;99.90
19654;DHT22;9975;48.046;7.804;2023-11-21T03:41:24;8.70;99.90
19654;DHT22;9975;48.046;7.804;2023-11-21T03:43:50;8.80;99.90
19654;DHT22;9975;48.046;7.804;2023-11-21T03:46:16;8.70;99.90
19654;DHT22;9975;48.046;7.804;2023-11-21T03:48:42;8.70;99.90
19654;DHT22;9975;48.046;7.804;2023-11-21T03:51:07;8.60;99.90
19654;DHT22;9975;48.046;7.804;2023-11-21T03:53:34;8.60;99.90
19654;DHT22;9975;48.046;7.804;2023-11-21T03:56:02;8.60;99.90
19654;DHT22;9975;48.046;7.804;2023-11-21T03:58:29;8.60;99.90
19654;DHT22;9975;48.046;7.804;2023-11-21T04:00:54;8.60;99.90
19654;DHT22;9975;48.046;7.804;2023-11-21T04:03:20;8.50;99.90
19654;DHT22;9975;48.046;7.804;2023-11-21T04:05:46;8.60;99.90
19654;DHT22;9975;48.046;7.804;2023-11-21T04:08:12;8.50;99.90
19654;DHT22;9975;48.046;7.804;2023-11-21T04:10:38;8.50;99.90
19654;DHT22;9975;48.046;7.804;2023-11-21T04:13:05;8.50;99.90
19654;DHT22;9975;48.046;7.804;2023-11-21T04:15:32;8.50;99.90
19654;DHT22;9975;48.046;7.804;2023-11-21T04:17:57;8.50;99.90
19654;DHT22;9975;48.046;7.804;2023-11-21T04:20:24;8.40;99.90
19654;DHT22;9975;48.046;7.804;2023-11-21T04:22:50;8.40;99.90
19654;DHT22;9975;48.046;7.804;2023-11-21T04:25:16;8.50;99.90
19654;DHT22;9975;48.046;7.804;2023-11-21T04:27:44;8.40;99.90
19654;DHT22;9975;48.046;7.804;2023-11-21T04:30:13;8.40;99.90
19654;DHT22;9975;48.046;7.804;2023-11-21T04:32:39;8.40;99.90
19654;DHT22;9975;48.046;7.804;2023-11-21T04:35:05;8.40;99.90
19654;DHT22;9975;48.046;7.804;2023-11-21T04:37:30;8.40;99.90
19654;DHT22;9975;48.046;7.804;2023-11-21T04:39:56;8.40;99.90
19654;DHT22;9975;48.046;7.804;2023-11-21T04:42:22;8.80;99.90
19654;DHT22;9975;48.046;7.804;2023-11-21T04:44:48;8.40;99.90
19654;DHT22;9975;48.046;7.804;2023-11-21T04:47:14;8.40;99.90
19654;DHT22;9975;48.046;7.804;2023-11-21T04:49:42;8.70;99.90
19654;DHT22;9975;48.046;7.804;2023-11-21T04:52:08;8.40;99.90
19654;DHT22;9975;48.046;7.804;2023-11-21T04:54:35;8.40;99.90
19654;DHT22;9975;48.046;7.804;2023-11-21T04:57:01;8.40;99.90
19654;DHT22;9975;48.046;7.804;2023-11-21T04:59:26;8.40;99.90
19654;DHT22;9975;48.046;7.804;2023-11-21T05:01:53;8.50;99.90
19654;DHT22;9975;48.046;7.804;2023-11-21T05:04:19;8.40;99.90
19654;DHT22;9975;48.046;7.804;2023-11-21T05:06:45;8.50;99.90
19654;DHT22;9975;48.046;7.804;2023-11-21T05:09:11;8.40;99.90
19654;DHT22;9975;48.046;7.804;2023-11-21T05:11:37;8.50;99.90
19654;DHT22;9975;48.046;7.804;2023-11-21T05:14:03;8.30;99.90
19654;DHT22;9975;48.046;7.804;2023-11-21T05:16:30;8.30;99.90
19654;DHT22;9975;48.046;7.804;2023-11-21T05:18:56;8.40;99.90
19654;DHT22;9975;48.046;7.804;2023-11-21T05:21:26;8.30;99.90
19654;DHT22;9975;48.046;7.804;2023-11-21T05:23:52;8.40;99.90
19654;DHT22;9975;48.046;7.804;2023-11-21T05:26:17;8.30;99.90
19654;DHT22;9975;48.046;7.804;2023-11-21T05:28:43;8.30;99.90
19654;DHT22;9975;48.046;7.804;2023-11-21T05:31:09;8.20;99.90
19654;DHT22;9975;48.046;7.804;2023-11-21T05:33:36;8.30;99.90
19654;DHT22;9975;48.046;7.804;2023-11-21T05:36:02;8.40;99.90
19654;DHT22;9975;48.046;7.804;2023-11-21T05:38:27;8.30;99.90
19654;DHT22;9975;48.046;7.804;2023-11-21T05:40:53;8.30;99.90
19654;DHT22;9975;48.046;7.804;2023-11-21T05:43:20;8.20;99.90
19654;DHT22;9975;48.046;7.804;2023-11-21T05:45:45;8.20;99.90
19654;DHT22;9975;48.046;7.804;2023-11-21T05:48:11;8.20;99.90
19654;DHT22;9975;48.046;7.804;2023-11-21T05:50:37;8.30;99.90
19654;DHT22;9975;48.046;7.804;2023-11-21T05:53:03;8.20;99.90
19654;DHT22;9975;48.046;7.804;2023-11-21T05:55:29;8.30;99.90
19654;DHT22;9975;48.046;7.804;2023-11-21T05:57:55;8.30;99.90
19654;DHT22;9975;48.046;7.804;2023-11-21T06:00:20;8.20;99.90
19654;DHT22;9975;48.046;7.804;2023-11-21T06:02:51;8.10;99.90
19654;DHT22;9975;48.046;7.804;2023-11-21T06:05:20;8.20;99.90
19654;DHT22;9975;48.046;7.804;2023-11-21T06:07:46;8.10;99.90
19654;DHT22;9975;48.046;7.804;2023-11-21T06:10:12;8.10;99.90
19654;DHT22;9975;48.046;7.804;2023-11-21T06:12:41;8.10;99.90
19654;DHT22;9975;48.046;7.804;2023-11-21T06:15:08;8.00;99.90
19654;DHT22;9975;48.046;7.804;2023-11-21T06:17:37;8.10;99.90
19654;DHT22;9975;48.046;7.804;2023-11-21T06:20:04;8.10;99.90
19654;DHT22;9975;48.046;7.804;2023-11-21T06:22:38;8.10;99.90
19654;DHT22;9975;48.046;7.804;2023-11-21T06:25:05;8.10;99.90
19654;DHT22;9975;48.046;7.804;2023-11-21T06:27:44;8.10;99.90
19654;DHT22;9975;48.046;7.804;2023-11-21T06:30:11;8.10;99.90
19654;DHT22;9975;48.046;7.804;2023-11-21T06:32:38;8.10;99.90
19654;DHT22;9975;48.046;7.804;2023-11-21T06:35:07;8.10;99.90
19654;DHT22;9975;48.046;7.804;2023-11-21T06:37:35;8.10;99.90
19654;DHT22;9975;48.046;7.804;2023-11-21T06:40:01;8.10;99.90
19654;DHT22;9975;48.046;7.804;2023-11-21T06:42:29;8.20;99.90
19654;DHT22;9975;48.046;7.804;2023-11-21T06:44:55;8.20;99.90
19654;DHT22;9975;48.046;7.804;2023-11-21T06:47:24;8.20;99.90
19654;DHT22;9975;48.046;7.804;2023-11-21T06:49:51;8.10;99.90
19654;DHT22;9975;48.046;7.804;2023-11-21T06:52:17;8.10;99.90
19654;DHT22;9975;48.046;7.804;2023-11-21T06:54:43;8.20;99.90
19654;DHT22;9975;48.046;7.804;2023-11-21T06:57:11;8.10;99.90
19654;DHT22;9975;48.046;7.804;2023-11-21T06:59:36;8.10;99.90
19654;DHT22;9975;48.046;7.804;2023-11-21T07:02:02;8.20;99.90
19654;DHT22;9975;48.046;7.804;2023-11-21T07:04:28;8.20;99.90
19654;DHT22;9975;48.046;7.804;2023-11-21T07:06:54;8.20;99.90
19654;DHT22;9975;48.046;7.804;2023-11-21T07:09:20;8.20;99.90
19654;DHT22;9975;48.046;7.804;2023-11-21T07:11:48;8.50;99.90
19654;DHT22;9975;48.046;7.804;2023-11-21T07:14:14;8.20;99.90
19654;DHT22;9975;48.046;7.804;2023-11-21T07:16:40;8.10;99.90
19654;DHT22;9975;48.046;7.804;2023-11-21T07:19:06;8.10;99.90
19654;DHT22;9975;48.046;7.804;2023-11-21T07:21:33;8.10;99.90
19654;DHT22;9975;48.046;7.804;2023-11-21T07:24:00;8.20;99.90
19654;DHT22;9975;48.046;7.804;2023-11-21T07:26:27;8.30;99.90
19654;DHT22;9975;48.046;7.804;2023-11-21T07:28:53;8.20;99.90
19654;DHT22;9975;48.046;7.804;2023-11-21T07:31:18;8.10;99.90
19654;DHT22;9975;48.046;7.804;2023-11-21T07:33:45;8.20;99.90
19654;DHT22;9975;48.046;7.804;2023-11-21T07:36:16;8.20;99.90
19654;DHT22;9975;48.046;7.804;2023-11-21T07:38:44;8.40;99.90
19654;DHT22;9975;48.046;7.804;2023-11-21T07:41:10;8.30;99.90
19654;DHT22;9975;48.046;7.804;2023-11-21T07:43:45;8.30;99.90
19654;DHT22;9975;48.046;7.804;2023-11-21T07:46:11;8.30;99.90
19654;DHT22;9975;48.046;7.804;2023-11-21T07:48:41;8.40;99.90
19654;DHT22;9975;48.046;7.804;2023-11-21T07:51:07;8.40;99.90
19654;DHT22;9975;48.046;7.804;2023-11-21T07:53:34;8.40;99.90
19654;DHT22;9975;48.046;7.804;2023-11-21T07:56:07;8.40;99.90
19654;DHT22;9975;48.046;7.804;2023-11-21T07:58:36;8.40;99.90
19654;DHT22;9975;48.046;7.804;2023-11-21T08:01:02;8.50;99.90
19654;DHT22;9975;48.046;7.804;2023-11-21T08:03:29;8.50;99.90
19654;DHT22;9975;48.046;7.804;2023-11-21T08:05:56;8.50;99.90
19654;DHT22;9975;48.046;7.804;2023-11-21T08:08:22;8.60;99.90
19654;DHT22;9975;48.046;7.804;2023-11-21T08:10:47;8.60;99.90
19654;DHT22;9975;48.046;7.804;2023-11-21T08:13:27;8.70;99.90
19654;DHT22;9975;48.046;7.804;2023-11-21T08:15:57;8.60;99.90
19654;DHT22;9975;48.046;7.804;2023-11-21T08:18:27;8.60;99.90
19654;DHT22;9975;48.046;7.804;2023-11-21T08:20:54;8.60;99.90
19654;DHT22;9975;48.046;7.804;2023-11-21T08:23:20;8.60;99.90
19654;DHT22;9975;48.046;7.804;2023-11-21T08:25:46;8.70;99.90
19654;DHT22;9975;48.046;7.804;2023-11-21T08:28:12;8.70;99.90
19654;DHT22;9975;48.046;7.804;2023-11-21T08:30:41;8.70;99.90
19654;DHT22;9975;48.046;7.804;2023-11-21T08:33:07;8.80;99.90
19654;DHT22;9975;48.046;7.804;2023-11-21T08:35:34;8.90;99.90
19654;DHT22;9975;48.046;7.804;2023-11-21T08:38:00;8.90;99.90
19654;DHT22;9975;48.046;7.804;2023-11-21T08:40:25;8.90;99.90
19654;DHT22;9975;48.046;7.804;2023-11-21T08:42:51;9.00;99.90
19654;DHT22;9975;48.046;7.804;2023-11-21T08:45:18;9.00;99.90
19654;DHT22;9975;48.046;7.804;2023-11-21T08:47:44;9.10;99.90
19654;DHT22;9975;48.046;7.804;2023-11-21T08:50:10;9.10;99.90
19654;DHT22;9975;48.046;7.804;2023-11-21T08:52:38;9.20;99.90
19654;DHT22;9975;48.046;7.804;2023-11-21T08:55:04;9.20;99.90
19654;DHT22;9975;48.046;7.804;2023-11-21T08:57:36;9.20;99.90
19654;DHT22;9975;48.046;7.804;2023-11-21T09:00:06;9.30;99.90
19654;DHT22;9975;48.046;7.804;2023-11-21T09:02:33;9.30;99.90
19654;DHT22;9975;48.046;7.804;2023-11-21T09:05:18;9.30;99.90
19654;DHT22;9975;48.046;7.804;2023-11-21T09:07:44;9.40;99.90
19654;DHT22;9975;48.046;7.804;2023-11-21T09:10:12;9.30;99.90
19654;DHT22;9975;48.046;7.804;2023-11-21T09:12:38;9.40;99.90
19654;DHT22;9975;48.046;7.804;2023-11-21T09:15:05;9.30;99.90
19654;DHT22;9975;48.046;7.804;2023-11-21T09:17:34;9.40;99.90
19654;DHT22;9975;48.046;7.804;2023-11-21T09:20:00;9.40;99.90
19654;DHT22;9975;48.046;7.804;2023-11-21T09:22:26;9.40;99.90
19654;DHT22;9975;48.046;7.804;2023-11-21T09:24:52;9.40;99.90
19654;DHT22;9975;48.046;7.804;2023-11-21T09:27:18;9.40;99.90
19654;DHT22;9975;48.046;7.804;2023-11-21T09:29:44;9.40;99.90
19654;DHT22;9975;48.046;7.804;2023-11-21T09:32:11;9.40;99.90
19654;DHT22;9975;48.046;7.804;2023-11-21T09:34:39;9.40;99.90
19654;DHT22;9975;48.046;7.804;2023-11-21T09:37:06;9.40;99.90
19654;DHT22;9975;48.046;7.804;2023-11-21T09:39:38;9.40;99.90
19654;DHT22;9975;48.046;7.804;2023-11-21T09:42:17;9.40;99.90
19654;DHT22;9975;48.046;7.804;2023-11-21T09:45:44;9.40;99.90
19654;DHT22;9975;48.046;7.804;2023-11-21T09:47:39;9.40;99.90
19654;DHT22;9975;48.046;7.804;2023-11-21T09:50:05;9.40;99.90
19654;DHT22;9975;48.046;7.804;2023-11-21T09:52:49;9.40;99.90
19654;DHT22;9975;48.046;7.804;2023-11-21T09:55:18;9.40;99.90
19654;DHT22;9975;48.046;7.804;2023-11-21T09:57:47;9.40;99.90
19654;DHT22;9975;48.046;7.804;2023-11-21T10:00:14;9.50;99.90
19654;DHT22;9975;48.046;7.804;2023-11-21T10:02:43;9.50;99.90
19654;DHT22;9975;48.046;7.804;2023-11-21T10:05:09;9.50;99.90
19654;DHT22;9975;48.046;7.804;2023-11-21T10:07:39;9.60;99.90
19654;DHT22;9975;48.046;7.804;2023-11-21T10:10:07;9.60;99.90
19654;DHT22;9975;48.046;7.804;2023-11-21T10:12:35;9.70;99.90
19654;DHT22;9975;48.046;7.804;2023-11-21T10:15:03;9.80;99.90
19654;DHT22;9975;48.046;7.804;2023-11-21T10:17:32;9.90;99.90
19654;DHT22;9975;48.046;7.804;2023-11-21T10:20:05;9.80;99.90
19654;DHT22;9975;48.046;7.804;2023-11-21T10:22:43;9.80;99.90
19654;DHT22;9975;48.046;7.804;2023-11-21T10:25:09;9.80;99.90
19654;DHT22;9975;48.046;7.804;2023-11-21T10:27:36;9.70;99.90
19654;DHT22;9975;48.046;7.804;2023-11-21T10:30:08;9.80;99.90
19654;DHT22;9975;48.046;7.804;2023-11-21T10:32:38;9.90;99.90
19654;DHT22;9975;48.046;7.804;2023-11-21T10:35:04;10.00;99.90
19654;DHT22;9975;48.046;7.804;2023-11-21T10:37:42;10.10;99.90
19654;DHT22;9975;48.046;7.804;2023-11-21T10:40:11;10.00;99.90
19654;DHT22;9975;48.046;7.804;2023-11-21T10:42:38;10.00;99.90
19654;DHT22;9975;48.046;7.804;2023-11-21T10:45:05;10.00;99.90
19654;DHT22;9975;48.046;7.804;2023-11-21T10:47:41;10.00;99.90
19654;DHT22;9975;48.046;7.804;2023-11-21T10:50:07;9.90;99.90
19654;DHT22;9975;48.046;7.804;2023-11-21T10:52:37;9.80;99.90
19654;DHT22;9975;48.046;7.804;2023-11-21T10:55:16;9.70;99.90
19654;DHT22;9975;48.046;7.804;2023-11-21T10:57:43;9.60;99.90
19654;DHT22;9975;48.046;7.804;2023-11-21T11:00:10;9.50;99.90
19654;DHT22;9975;48.046;7.804;2023-11-21T11:02:39;9.50;99.90
19654;DHT22;9975;48.046;7.804;2023-11-21T11:05:06;9.50;99.90
19654;DHT22;9975;48.046;7.804;2023-11-21T11:07:32;9.50;99.90
19654;DHT22;9975;48.046;7.804;2023-11-21T11:10:00;9.50;99.90
19654;DHT22;9975;48.046;7.804;2023-11-21T11:12:26;9.50;99.90
19654;DHT22;9975;48.046;7.804;2023-11-21T11:14:53;9.50;99.90
19654;DHT22;9975;48.046;7.804;2023-11-21T11:17:20;9.50;99.90
19654;DHT22;9975;48.046;7.804;2023-11-21T11:19:47;9.50;99.90
19654;DHT22;9975;48.046;7.804;2023-11-21T11:28:26;9.40;99.90
19654;DHT22;9975;48.046;7.804;2023-11-21T11:33:58;9.40;99.90
19654;DHT22;9975;48.046;7.804;2023-11-21T11:36:37;9.30;99.90
19654;DHT22;9975;48.046;7.804;2023-11-21T11:39:34;9.20;99.90
19654;DHT22;9975;48.046;7.804;2023-11-21T11:42:03;9.20;99.90
19654;DHT22;9975;48.046;7.804;2023-11-21T11:44:47;9.20;99.90
19654;DHT22;9975;48.046;7.804;2023-11-21T11:47:25;9.20;99.90
19654;DHT22;9975;48.046;7.804;2023-11-21T11:50:10;9.20;99.90
19654;DHT22;9975;48.046;7.804;2023-11-21T11:52:49;9.20;99.90
19654;DHT22;9975;48.046;7.804;2023-11-21T11:55:21;9.20;99.90
19654;DHT22;9975;48.046;7.804;2023-11-21T11:57:49;9.30;99.90
19654;DHT22;9975;48.046;7.804;2023-11-21T12:00:17;9.20;99.90
19654;DHT22;9975;48.046;7.804;2023-11-21T12:02:48;9.10;99.90
19654;DHT22;9975;48.046;7.804;2023-11-21T12:05:16;9.30;99.90
19654;DHT22;9975;48.046;7.804;2023-11-21T12:10:17;9.10;99.90
19654;DHT22;9975;48.046;7.804;2023-11-21T12:15:51;9.10;99.90
19654;DHT22;9975;48.046;7.804;2023-11-21T12:18:17;9.10;99.90
19654;DHT22;9975;48.046;7.804;2023-11-21T12:20:43;9.10;99.90
19654;DHT22;9975;48.046;7.804;2023-11-21T12:23:12;9.20;99.90
19654;DHT22;9975;48.046;7.804;2023-11-21T12:25:40;9.20;99.90
19654;DHT22;9975;48.046;7.804;2023-11-21T12:28:07;9.20;99.90
19654;DHT22;9975;48.046;7.804;2023-11-21T12:30:34;9.30;99.90
19654;DHT22;9975;48.046;7.804;2023-11-21T12:33:04;9.30;99.90
19654;DHT22;9975;48.046;7.804;2023-11-21T12:35:34;9.40;99.90
19654;DHT22;9975;48.046;7.804;2023-11-21T12:38:01;9.50;99.90
19654;DHT22;9975;48.046;7.804;2023-11-21T12:40:28;9.40;99.90
19654;DHT22;9975;48.046;7.804;2023-11-21T12:42:56;9.50;99.90
19654;DHT22;9975;48.046;7.804;2023-11-21T12:45:28;9.50;99.90
19654;DHT22;9975;48.046;7.804;2023-11-21T12:48:05;9.60;99.90
19654;DHT22;9975;48.046;7.804;2023-11-21T12:50:34;9.70;99.90
19654;DHT22;9975;48.046;7.804;2023-11-21T12:53:06;9.80;99.90
19654;DHT22;9975;48.046;7.804;2023-11-21T12:55:35;9.90;99.90
19654;DHT22;9975;48.046;7.804;2023-11-21T12:58:06;9.90;99.90
19654;DHT22;9975;48.046;7.804;2023-11-21T13:00:36;9.90;99.90
19654;DHT22;9975;48.046;7.804;2023-11-21T13:03:04;10.00;99.90
19654;DHT22;9975;48.046;7.804;2023-11-21T13:05:35;10.00;99.90
19654;DHT22;9975;48.046;7.804;2023-11-21T13:08:03;10.00;99.90
19654;DHT22;9975;48.046;7.804;2023-11-21T13:10:33;10.10;99.90
19654;DHT22;9975;48.046;7.804;2023-11-21T13:13:02;10.20;99.90
19654;DHT22;9975;48.046;7.804;2023-11-21T13:15:31;10.20;99.90
19654;DHT22;9975;48.046;7.804;2023-11-21T13:17:58;10.10;99.90
19654;DHT22;9975;48.046;7.804;2023-11-21T13:20:25;10.10;99.90
19654;DHT22;9975;48.046;7.804;2023-11-21T13:22:53;10.10;99.90
19654;DHT22;9975;48.046;7.804;2023-11-21T13:25:26;10.10;99.90
19654;DHT22;9975;48.046;7.804;2023-11-21T13:27:57;10.10;99.90
19654;DHT22;9975;48.046;7.804;2023-11-21T13:30:23;10.10;99.90
19654;DHT22;9975;48.046;7.804;2023-11-21T13:32:56;10.10;99.90
19654;DHT22;9975;48.046;7.804;2023-11-21T13:35:31;10.10;99.90
19654;DHT22;9975;48.046;7.804;2023-11-21T13:38:15;10.10;99.90
19654;DHT22;9975;48.046;7.804;2023-11-21T13:40:47;10.10;99.90
19654;DHT22;9975;48.046;7.804;2023-11-21T13:43:15;10.00;99.90
19654;DHT22;9975;48.046;7.804;2023-11-21T13:45:43;9.90;99.90
19654;DHT22;9975;48.046;7.804;2023-11-21T13:48:11;9.90;99.90
19654;DHT22;9975;48.046;7.804;2023-11-21T13:50:39;9.80;99.90
19654;DHT22;9975;48.046;7.804;2023-11-21T13:53:14;9.80;99.90
19654;DHT22;9975;48.046;7.804;2023-11-21T13:55:49;9.80;99.90
19654;DHT22;9975;48.046;7.804;2023-11-21T13:58:16;9.80;99.90
19654;DHT22;9975;48.046;7.804;2023-11-21T14:00:49;9.80;99.90
19654;DHT22;9975;48.046;7.804;2023-11-21T14:03:38;9.70;99.90
19654;DHT22;9975;48.046;7.804;2023-11-21T14:06:10;9.70;99.90
19654;DHT22;9975;48.046;7.804;2023-11-21T14:08:41;9.70;99.90
19654;DHT22;9975;48.046;7.804;2023-11-21T14:11:07;9.70;99.90
19654;DHT22;9975;48.046;7.804;2023-11-21T14:13:33;9.60;99.90
19654;DHT22;9975;48.046;7.804;2023-11-21T14:15:59;9.60;99.90
19654;DHT22;9975;48.046;7.804;2023-11-21T14:18:27;9.60;99.90
19654;DHT22;9975;48.046;7.804;2023-11-21T14:21:03;9.70;99.90
19654;DHT22;9975;48.046;7.804;2023-11-21T14:23:28;9.60;99.90
19654;DHT22;9975;48.046;7.804;2023-11-21T14:25:55;9.60;99.90
19654;DHT22;9975;48.046;7.804;2023-11-21T14:28:21;9.60;99.90
19654;DHT22;9975;48.046;7.804;2023-11-21T14:30:48;9.60;99.90
19654;DHT22;9975;48.046;7.804;2023-11-21T14:33:13;9.60;99.90
19654;DHT22;9975;48.046;7.804;2023-11-21T14:35:42;9.60;99.90
19654;DHT22;9975;48.046;7.804;2023-11-21T14:38:09;9.60;99.90
19654;DHT22;9975;48.046;7.804;2023-11-21T14:40:35;9.60;99.90
19654;DHT22;9975;48.046;7.804;2023-11-21T14:43:04;9.50;99.90
19654;DHT22;9975;48.046;7.804;2023-11-21T14:45:33;9.60;99.90
19654;DHT22;9975;48.046;7.804;2023-11-21T14:48:00;9.60;99.90
19654;DHT22;9975;48.046;7.804;2023-11-21T14:50:34;9.60;99.90
19654;DHT22;9975;48.046;7.804;2023-11-21T14:53:12;9.60;99.90
19654;DHT22;9975;48.046;7.804;2023-11-21T14:55:39;9.60;99.90
19654;DHT22;9975;48.046;7.804;2023-11-21T14:58:18;9.60;99.90
19654;DHT22;9975;48.046;7.804;2023-11-21T15:00:57;9.60;99.90
19654;DHT22;9975;48.046;7.804;2023-11-21T15:03:28;9.50;99.90
19654;DHT22;9975;48.046;7.804;2023-11-21T15:05:57;9.60;99.90
19654;DHT22;9975;48.046;7.804;2023-11-21T15:08:23;9.60;99.90
19654;DHT22;9975;48.046;7.804;2023-11-21T15:10:57;9.70;99.90
19654;DHT22;9975;48.046;7.804;2023-11-21T15:13:23;9.60;99.90
19654;DHT22;9975;48.046;7.804;2023-11-21T15:15:50;9.60;99.90
19654;DHT22;9975;48.046;7.804;2023-11-21T15:18:17;9.50;99.90
19654;DHT22;9975;48.046;7.804;2023-11-21T15:20:43;9.50;99.90
19654;DHT22;9975;48.046;7.804;2023-11-21T15:23:09;9.40;99.90
19654;DHT22;9975;48.046;7.804;2023-11-21T15:25:38;9.30;99.90
19654;DHT22;9975;48.046;7.804;2023-11-21T15:28:04;9.30;99.90
19654;DHT22;9975;48.046;7.804;2023-11-21T15:30:32;9.30;99.90
19654;DHT22;9975;48.046;7.804;2023-11-21T15:32:58;9.40;99.90
19654;DHT22;9975;48.046;7.804;2023-11-21T15:35:24;9.30;99.90
19654;DHT22;9975;48.046;7.804;2023-11-21T15:37:52;9.40;99.90
19654;DHT22;9975;48.046;7.804;2023-11-21T15:40:18;9.30;99.90
19654;DHT22;9975;48.046;7.804;2023-11-21T15:42:44;9.30;99.90
19654;DHT22;9975;48.046;7.804;2023-11-21T15:45:10;9.30;99.90
19654;DHT22;9975;48.046;7.804;2023-11-21T15:47:36;9.30;99.90
19654;DHT22;9975;48.046;7.804;2023-11-21T15:50:02;9.30;99.90
19654;DHT22;9975;48.046;7.804;2023-11-21T15:52:29;9.30;99.90
19654;DHT22;9975;48.046;7.804;2023-11-21T15:54:55;9.30;99.90
19654;DHT22;9975;48.046;7.804;2023-11-21T15:57:21;9.20;99.90
19654;DHT22;9975;48.046;7.804;2023-11-21T15:59:47;9.20;99.90
19654;DHT22;9975;48.046;7.804;2023-11-21T16:02:13;9.20;99.90
19654;DHT22;9975;48.046;7.804;2023-11-21T16:04:41;9.20;99.90
19654;DHT22;9975;48.046;7.804;2023-11-21T16:07:08;9.20;99.90
19654;DHT22;9975;48.046;7.804;2023-11-21T16:09:35;9.30;99.90
19654;DHT22;9975;48.046;7.804;2023-11-21T16:12:04;9.20;99.90
19654;DHT22;9975;48.046;7.804;2023-11-21T16:14:35;9.20;99.90
19654;DHT22;9975;48.046;7.804;2023-11-21T16:17:07;9.20;99.90
19654;DHT22;9975;48.046;7.804;2023-11-21T16:19:33;9.10;99.90
19654;DHT22;9975;48.046;7.804;2023-11-21T16:21:59;9.20;99.90
19654;DHT22;9975;48.046;7.804;2023-11-21T16:24:26;9.20;99.90
19654;DHT22;9975;48.046;7.804;2023-11-21T16:26:53;9.10;99.90
19654;DHT22;9975;48.046;7.804;2023-11-21T16:29:21;9.00;99.90
19654;DHT22;9975;48.046;7.804;2023-11-21T16:31:46;9.10;99.90
19654;DHT22;9975;48.046;7.804;2023-11-21T16:34:15;9.10;99.90
19654;DHT22;9975;48.046;7.804;2023-11-21T16:36:42;9.10;99.90
19654;DHT22;9975;48.046;7.804;2023-11-21T16:39:08;9.00;99.90
19654;DHT22;9975;48.046;7.804;2023-11-21T16:41:40;9.00;99.90
19654;DHT22;9975;48.046;7.804;2023-11-21T16:44:12;9.00;99.90
19654;DHT22;9975;48.046;7.804;2023-11-21T16:46:38;8.90;99.90
19654;DHT22;9975;48.046;7.804;2023-11-21T16:49:03;8.90;99.90
19654;DHT22;9975;48.046;7.804;2023-11-21T16:51:29;8.90;99.90
19654;DHT22;9975;48.046;7.804;2023-11-21T16:53:55;8.80;99.90
19654;DHT22;9975;48.046;7.804;2023-11-21T16:56:21;8.80;99.90
19654;DHT22;9975;48.046;7.804;2023-11-21T16:58:47;8.70;99.90
19654;DHT22;9975;48.046;7.804;2023-11-21T17:01:12;8.80;99.90
19654;DHT22;9975;48.046;7.804;2023-11-21T17:03:38;8.70;99.90
19654;DHT22;9975;48.046;7.804;2023-11-21T17:06:04;8.70;99.90
19654;DHT22;9975;48.046;7.804;2023-11-21T17:08:31;8.60;99.90
19654;DHT22;9975;48.046;7.804;2023-11-21T17:10:57;8.70;99.90
19654;DHT22;9975;48.046;7.804;2023-11-21T17:13:24;8.80;99.90
19654;DHT22;9975;48.046;7.804;2023-11-21T17:15:49;8.70;99.90
19654;DHT22;9975;48.046;7.804;2023-11-21T17:18:15;8.70;99.90
19654;DHT22;9975;48.046;7.804;2023-11-21T17:20:41;8.70;99.90
19654;DHT22;9975;48.046;7.804;2023-11-21T17:23:06;8.60;99.90
19654;DHT22;9975;48.046;7.804;2023-11-21T17:25:35;8.60;99.90
19654;DHT22;9975;48.046;7.804;2023-11-21T17:28:02;8.60;99.90
19654;DHT22;9975;48.046;7.804;2023-11-21T17:30:28;8.60;99.90
19654;DHT22;9975;48.046;7.804;2023-11-21T17:32:54;8.60;99.90
19654;DHT22;9975;48.046;7.804;2023-11-21T17:35:20;8.60;99.90
19654;DHT22;9975;48.046;7.804;2023-11-21T17:37:47;8.60;99.90
19654;DHT22;9975;48.046;7.804;2023-11-21T17:40:13;8.60;99.90
19654;DHT22;9975;48.046;7.804;2023-11-21T17:42:40;8.60;99.90
19654;DHT22;9975;48.046;7.804;2023-11-21T17:45:07;8.60;99.90
19654;DHT22;9975;48.046;7.804;2023-11-21T17:47:33;8.70;99.90
19654;DHT22;9975;48.046;7.804;2023-11-21T17:49:58;8.70;99.90
19654;DHT22;9975;48.046;7.804;2023-11-21T17:52:24;8.60;99.90
19654;DHT22;9975;48.046;7.804;2023-11-21T17:54:50;8.60;99.90
19654;DHT22;9975;48.046;7.804;2023-11-21T17:57:16;8.70;99.90
19654;DHT22;9975;48.046;7.804;2023-11-21T17:59:42;8.80;99.90
19654;DHT22;9975;48.046;7.804;2023-11-21T18:02:08;8.70;99.90
19654;DHT22;9975;48.046;7.804;2023-11-21T18:04:34;8.90;99.90
19654;DHT22;9975;48.046;7.804;2023-11-21T18:07:01;8.70;99.90
19654;DHT22;9975;48.046;7.804;2023-11-21T18:09:27;8.70;99.90
19654;DHT22;9975;48.046;7.804;2023-11-21T18:11:53;8.80;99.90
19654;DHT22;9975;48.046;7.804;2023-11-21T18:14:18;8.80;99.90